CYUX

Hall Beach Airport

Hall Beach, Canada
METAR CYUX 231400Z 31012KT 15SM -SN OVC013 M07/M09 A2987 RMK SC8 PCPN VRY LGT SLP118
Observed Flight Rules
May-23 @ 14:00 UTC (an hour ago) Marginal Visual Flight Rules
Wind Visibility Clouds Conditions
310° at 12 knots 15 miles
  • Overcast at 1,300' AGL
  • Light Snow
Temperatures Readings
Current -7°C / 19°F
Dewpoint -9°C / 16°F
Humidity 86%
Altimeter 29.87" Hg
Pressure 1011.8 hPa
Elevation 8
METAR CYUX 231400Z 31012KT 15SM -SN OVC013 M07/M09 A2987 RMK SC8 PCPN VRY LGT SLP118
Observed Flight Rules
May-23 @ 14:00 UTC
(an hour ago)
MVFR
Wind Visibility
310° at 12 knots 15 miles
Clouds
  • Overcast at 1,300' AGL
Conditions
  • Light Snow
Temperature Dewpoint
-7°C / 19°F -9°C / 16°F
Humidity Altimeter Pressure
86% 29.87" Hg 1011.8 hPa